sensor_id;sensor_type;location;lat;lon;timestamp;pressure;altitude;pressure_sealevel;temperature;humidity
65718;BME280;52445;52.466;-1.016;2022-10-16T00:01:24;98833.53;;;10.76;69.29
65718;BME280;52445;52.466;-1.016;2022-10-16T00:03:51;98831.91;;;10.72;69.00
65718;BME280;52445;52.466;-1.016;2022-10-16T00:06:20;98832.84;;;10.70;69.61
65718;BME280;52445;52.466;-1.016;2022-10-16T00:08:48;98831.25;;;10.64;69.23
65718;BME280;52445;52.466;-1.016;2022-10-16T00:11:19;98830.41;;;10.62;69.79
65718;BME280;52445;52.466;-1.016;2022-10-16T00:13:47;98833.94;;;10.58;69.49
65718;BME280;52445;52.466;-1.016;2022-10-16T00:16:15;98855.53;;;10.58;69.52
65718;BME280;52445;52.466;-1.016;2022-10-16T00:18:42;98854.72;;;10.54;70.35
65718;BME280;52445;52.466;-1.016;2022-10-16T00:21:13;98854.78;;;10.51;69.57
65718;BME280;52445;52.466;-1.016;2022-10-16T00:23:41;98854.88;;;10.48;70.62
65718;BME280;52445;52.466;-1.016;2022-10-16T00:26:11;98858.31;;;10.47;70.14
65718;BME280;52445;52.466;-1.016;2022-10-16T00:28:38;98859.22;;;10.46;70.70
65718;BME280;52445;52.466;-1.016;2022-10-16T00:31:07;98870.47;;;10.45;70.78
65718;BME280;52445;52.466;-1.016;2022-10-16T00:33:35;98863.56;;;10.44;70.88
65718;BME280;52445;52.466;-1.016;2022-10-16T00:36:04;98865.28;;;10.45;70.67
65718;BME280;52445;52.466;-1.016;2022-10-16T00:38:31;98863.50;;;10.47;70.17
65718;BME280;52445;52.466;-1.016;2022-10-16T00:40:58;98869.56;;;10.46;70.63
65718;BME280;52445;52.466;-1.016;2022-10-16T00:43:45;98868.81;;;10.39;70.37
65718;BME280;52445;52.466;-1.016;2022-10-16T00:49:11;98871.41;;;10.39;70.30
65718;BME280;52445;52.466;-1.016;2022-10-16T00:51:41;98868.78;;;10.43;71.16
65718;BME280;52445;52.466;-1.016;2022-10-16T00:54:13;98867.00;;;10.43;70.88
65718;BME280;52445;52.466;-1.016;2022-10-16T00:56:42;98869.59;;;10.45;70.24
65718;BME280;52445;52.466;-1.016;2022-10-16T00:59:30;98865.38;;;10.39;71.12
65718;BME280;52445;52.466;-1.016;2022-10-16T01:01:58;98867.88;;;10.45;70.49
65718;BME280;52445;52.466;-1.016;2022-10-16T01:04:26;98881.75;;;10.41;70.73
65718;BME280;52445;52.466;-1.016;2022-10-16T01:15:03;98879.09;;;10.44;70.07
65718;BME280;52445;52.466;-1.016;2022-10-16T01:17:53;98879.16;;;10.41;70.81
65718;BME280;52445;52.466;-1.016;2022-10-16T01:20:25;98874.16;;;10.32;70.61
65718;BME280;52445;52.466;-1.016;2022-10-16T01:28:11;98884.28;;;10.44;70.34
65718;BME280;52445;52.466;-1.016;2022-10-16T01:30:42;98884.28;;;10.44;70.20
65718;BME280;52445;52.466;-1.016;2022-10-16T01:33:17;98884.28;;;10.44;70.55
65718;BME280;52445;52.466;-1.016;2022-10-16T01:35:52;98886.00;;;10.45;71.05
65718;BME280;52445;52.466;-1.016;2022-10-16T01:38:28;98891.19;;;10.42;70.20
65718;BME280;52445;52.466;-1.016;2022-10-16T01:41:01;98898.06;;;10.46;70.79
65718;BME280;52445;52.466;-1.016;2022-10-16T01:43:35;98899.75;;;10.47;70.38
65718;BME280;52445;52.466;-1.016;2022-10-16T01:46:05;98903.22;;;10.46;70.33
65718;BME280;52445;52.466;-1.016;2022-10-16T01:48:32;98899.81;;;10.44;70.43
65718;BME280;52445;52.466;-1.016;2022-10-16T01:51:07;98892.91;;;10.43;71.01
65718;BME280;52445;52.466;-1.016;2022-10-16T01:53:36;98900.59;;;10.48;70.23
65718;BME280;52445;52.466;-1.016;2022-10-16T01:56:05;98904.94;;;10.47;70.71
65718;BME280;52445;52.466;-1.016;2022-10-16T01:58:36;98907.47;;;10.49;70.06
65718;BME280;52445;52.466;-1.016;2022-10-16T02:01:07;98902.34;;;10.47;70.83
65718;BME280;52445;52.466;-1.016;2022-10-16T02:03:37;98910.06;;;10.49;70.81
65718;BME280;52445;52.466;-1.016;2022-10-16T02:06:06;98912.66;;;10.49;70.52
65718;BME280;52445;52.466;-1.016;2022-10-16T02:08:34;98915.28;;;10.47;70.57
65718;BME280;52445;52.466;-1.016;2022-10-16T02:11:02;98930.75;;;10.50;69.98
65718;BME280;52445;52.466;-1.016;2022-10-16T02:13:41;98929.13;;;10.46;70.82
65718;BME280;52445;52.466;-1.016;2022-10-16T02:16:12;98929.97;;;10.47;70.16
65718;BME280;52445;52.466;-1.016;2022-10-16T02:18:40;98929.94;;;10.48;70.46
65718;BME280;52445;52.466;-1.016;2022-10-16T02:21:16;98925.69;;;10.44;70.43
65718;BME280;52445;52.466;-1.016;2022-10-16T02:26:44;98925.69;;;10.44;70.08
65718;BME280;52445;52.466;-1.016;2022-10-16T02:29:14;98937.78;;;10.45;70.10
65718;BME280;52445;52.466;-1.016;2022-10-16T02:31:46;98940.34;;;10.44;69.93
65718;BME280;52445;52.466;-1.016;2022-10-16T02:34:15;98953.31;;;10.45;69.85
65718;BME280;52445;52.466;-1.016;2022-10-16T02:36:44;98955.88;;;10.44;70.36
65718;BME280;52445;52.466;-1.016;2022-10-16T02:39:12;98956.84;;;10.39;70.04
65718;BME280;52445;52.466;-1.016;2022-10-16T02:41:39;98958.47;;;10.45;69.66
65718;BME280;52445;52.466;-1.016;2022-10-16T02:44:06;98961.94;;;10.44;70.34
65718;BME280;52445;52.466;-1.016;2022-10-16T02:46:32;98970.59;;;10.40;69.44
65718;BME280;52445;52.466;-1.016;2022-10-16T02:48:59;98960.22;;;10.43;69.60
65718;BME280;52445;52.466;-1.016;2022-10-16T02:51:26;98984.38;;;10.42;69.22
65718;BME280;52445;52.466;-1.016;2022-10-16T02:53:52;98987.88;;;10.41;69.20
65718;BME280;52445;52.466;-1.016;2022-10-16T02:56:19;98994.81;;;10.39;69.93
65718;BME280;52445;52.466;-1.016;2022-10-16T02:58:46;98987.00;;;10.40;69.53
65718;BME280;52445;52.466;-1.016;2022-10-16T03:01:12;98987.94;;;10.38;70.21
65718;BME280;52445;52.466;-1.016;2022-10-16T03:03:40;98984.50;;;10.36;69.51
65718;BME280;52445;52.466;-1.016;2022-10-16T03:06:07;98993.16;;;10.35;70.12
65718;BME280;52445;52.466;-1.016;2022-10-16T03:08:33;98995.75;;;10.35;69.95
65718;BME280;52445;52.466;-1.016;2022-10-16T03:11:00;99002.63;;;10.34;69.21
65718;BME280;52445;52.466;-1.016;2022-10-16T03:13:27;99013.91;;;10.32;69.24
65718;BME280;52445;52.466;-1.016;2022-10-16T03:15:54;99019.09;;;10.32;69.82
65718;BME280;52445;52.466;-1.016;2022-10-16T03:18:20;99021.69;;;10.30;69.14
65718;BME280;52445;52.466;-1.016;2022-10-16T03:20:47;99021.75;;;10.28;70.11
65718;BME280;52445;52.466;-1.016;2022-10-16T03:23:14;99039.06;;;10.25;69.49
65718;BME280;52445;52.466;-1.016;2022-10-16T03:25:41;99032.22;;;10.22;69.41
65718;BME280;52445;52.466;-1.016;2022-10-16T03:28:07;99039.13;;;10.20;69.89
65718;BME280;52445;52.466;-1.016;2022-10-16T03:30:34;99040.00;;;10.19;69.87
65718;BME280;52445;52.466;-1.016;2022-10-16T03:33:01;99052.13;;;10.17;69.78
65718;BME280;52445;52.466;-1.016;2022-10-16T03:35:27;99047.00;;;10.14;70.03
65718;BME280;52445;52.466;-1.016;2022-10-16T03:37:54;99050.47;;;10.13;70.49
65718;BME280;52445;52.466;-1.016;2022-10-16T03:40:21;99049.66;;;10.11;70.08
65718;BME280;52445;52.466;-1.016;2022-10-16T03:42:47;99063.47;;;10.10;71.11
65718;BME280;52445;52.466;-1.016;2022-10-16T03:45:14;99060.88;;;10.10;70.25
65718;BME280;52445;52.466;-1.016;2022-10-16T03:47:41;99060.91;;;10.08;70.91
65718;BME280;52445;52.466;-1.016;2022-10-16T03:50:08;99072.97;;;10.08;70.67
65718;BME280;52445;52.466;-1.016;2022-10-16T03:52:35;99068.72;;;10.05;71.66
65718;BME280;52445;52.466;-1.016;2022-10-16T03:55:01;99072.19;;;10.04;71.07
65718;BME280;52445;52.466;-1.016;2022-10-16T03:57:28;99079.97;;;10.02;70.89
65718;BME280;52445;52.466;-1.016;2022-10-16T03:59:55;99092.06;;;10.00;71.29
65718;BME280;52445;52.466;-1.016;2022-10-16T04:02:22;99099.84;;;9.99;70.95
65718;BME280;52445;52.466;-1.016;2022-10-16T04:04:49;99101.63;;;9.95;70.74
65718;BME280;52445;52.466;-1.016;2022-10-16T04:07:15;99100.78;;;9.93;71.30
65718;BME280;52445;52.466;-1.016;2022-10-16T04:09:42;99112.03;;;9.92;71.07
65718;BME280;52445;52.466;-1.016;2022-10-16T04:12:08;99117.19;;;9.92;71.49
65718;BME280;52445;52.466;-1.016;2022-10-16T04:14:35;99118.13;;;9.88;71.72
65718;BME280;52445;52.466;-1.016;2022-10-16T04:17:02;99114.72;;;9.86;71.65
65718;BME280;52445;52.466;-1.016;2022-10-16T04:19:28;99118.16;;;9.85;72.24
65718;BME280;52445;52.466;-1.016;2022-10-16T04:21:55;99123.34;;;9.85;72.22
65718;BME280;52445;52.466;-1.016;2022-10-16T04:24:21;99131.97;;;9.84;71.96
65718;BME280;52445;52.466;-1.016;2022-10-16T04:26:48;99142.31;;;9.84;71.80
65718;BME280;52445;52.466;-1.016;2022-10-16T04:29:15;99148.41;;;9.80;72.58
65718;BME280;52445;52.466;-1.016;2022-10-16T04:31:41;99156.19;;;9.80;72.78
65718;BME280;52445;52.466;-1.016;2022-10-16T04:34:08;99159.66;;;9.79;72.51
65718;BME280;52445;52.466;-1.016;2022-10-16T04:36:34;99170.00;;;9.79;72.11
65718;BME280;52445;52.466;-1.016;2022-10-16T04:39:01;99179.50;;;9.76;72.48
65718;BME280;52445;52.466;-1.016;2022-10-16T04:41:28;99195.00;;;9.76;72.23
65718;BME280;52445;52.466;-1.016;2022-10-16T04:43:54;99188.13;;;9.75;72.66
65718;BME280;52445;52.466;-1.016;2022-10-16T04:46:21;99205.38;;;9.73;72.37
65718;BME280;52445;52.466;-1.016;2022-10-16T04:48:48;99204.56;;;9.71;72.40
65718;BME280;52445;52.466;-1.016;2022-10-16T04:51:14;99210.56;;;9.72;72.64
65718;BME280;52445;52.466;-1.016;2022-10-16T04:53:41;99199.38;;;9.71;73.04
65718;BME280;52445;52.466;-1.016;2022-10-16T04:56:08;99217.50;;;9.70;73.04
65718;BME280;52445;52.466;-1.016;2022-10-16T04:58:34;99210.63;;;9.69;72.80
65718;BME280;52445;52.466;-1.016;2022-10-16T05:01:01;99219.25;;;9.66;72.92
65718;BME280;52445;52.466;-1.016;2022-10-16T05:03:27;99220.13;;;9.65;72.73
65718;BME280;52445;52.466;-1.016;2022-10-16T05:05:59;99231.38;;;9.64;72.99
65718;BME280;52445;52.466;-1.016;2022-10-16T05:08:26;99237.41;;;9.63;73.09
65718;BME280;52445;52.466;-1.016;2022-10-16T05:10:52;99251.19;;;9.62;73.07
65718;BME280;52445;52.466;-1.016;2022-10-16T05:13:19;99254.66;;;9.61;72.96
65718;BME280;52445;52.466;-1.016;2022-10-16T05:15:47;99265.00;;;9.61;72.79
65718;BME280;52445;52.466;-1.016;2022-10-16T05:18:15;99265.09;;;9.55;72.33
65718;BME280;52445;52.466;-1.016;2022-10-16T05:20:41;99274.56;;;9.54;72.57
65718;BME280;52445;52.466;-1.016;2022-10-16T05:23:08;99278.88;;;9.54;73.02
65718;BME280;52445;52.466;-1.016;2022-10-16T05:25:36;99280.63;;;9.51;72.95
65718;BME280;52445;52.466;-1.016;2022-10-16T05:28:04;99291.88;;;9.49;73.01
65718;BME280;52445;52.466;-1.016;2022-10-16T05:30:30;99292.72;;;9.46;72.91
65718;BME280;52445;52.466;-1.016;2022-10-16T05:32:57;99298.78;;;9.45;72.81
65718;BME280;52445;52.466;-1.016;2022-10-16T05:35:23;99301.38;;;9.42;72.56
65718;BME280;52445;52.466;-1.016;2022-10-16T05:37:50;99316.91;;;9.42;73.37
65718;BME280;52445;52.466;-1.016;2022-10-16T05:40:17;99322.09;;;9.39;72.79
65718;BME280;52445;52.466;-1.016;2022-10-16T05:42:43;99327.25;;;9.39;73.30
65718;BME280;52445;52.466;-1.016;2022-10-16T05:45:11;99328.16;;;9.36;72.99
65718;BME280;52445;52.466;-1.016;2022-10-16T05:47:39;99337.66;;;9.36;73.76
65718;BME280;52445;52.466;-1.016;2022-10-16T05:50:06;99341.97;;;9.34;73.10
65718;BME280;52445;52.466;-1.016;2022-10-16T05:52:33;99349.72;;;9.32;73.30
65718;BME280;52445;52.466;-1.016;2022-10-16T05:54:59;99349.75;;;9.31;73.07
65718;BME280;52445;52.466;-1.016;2022-10-16T05:57:26;99356.66;;;9.29;73.21
65718;BME280;52445;52.466;-1.016;2022-10-16T05:59:53;99354.97;;;9.28;73.16
65718;BME280;52445;52.466;-1.016;2022-10-16T06:02:20;99357.56;;;9.26;73.46
65718;BME280;52445;52.466;-1.016;2022-10-16T06:04:47;99359.28;;;9.24;73.90
65718;BME280;52445;52.466;-1.016;2022-10-16T06:07:14;99353.28;;;9.20;73.96
65718;BME280;52445;52.466;-1.016;2022-10-16T06:09:40;99355.88;;;9.19;73.71
65718;BME280;52445;52.466;-1.016;2022-10-16T06:12:07;99364.50;;;9.18;73.55
65718;BME280;52445;52.466;-1.016;2022-10-16T06:14:33;99353.31;;;9.16;74.16
65718;BME280;52445;52.466;-1.016;2022-10-16T06:17:00;99357.63;;;9.15;73.73
65718;BME280;52445;52.466;-1.016;2022-10-16T06:19:27;99358.50;;;9.11;73.76
65718;BME280;52445;52.466;-1.016;2022-10-16T06:21:53;99364.56;;;9.10;73.74
65718;BME280;52445;52.466;-1.016;2022-10-16T06:24:20;99361.09;;;9.11;73.40
65718;BME280;52445;52.466;-1.016;2022-10-16T06:26:47;99362.84;;;9.09;73.84
65718;BME280;52445;52.466;-1.016;2022-10-16T06:29:13;99379.19;;;9.08;73.72
65718;BME280;52445;52.466;-1.016;2022-10-16T06:31:40;99379.19;;;9.08;73.87
65718;BME280;52445;52.466;-1.016;2022-10-16T06:34:09;99382.66;;;9.07;73.97
65718;BME280;52445;52.466;-1.016;2022-10-16T06:36:38;99387.81;;;9.07;73.83
65718;BME280;52445;52.466;-1.016;2022-10-16T06:39:05;99397.31;;;9.05;74.28
65718;BME280;52445;52.466;-1.016;2022-10-16T06:41:33;99399.91;;;9.03;74.01
65718;BME280;52445;52.466;-1.016;2022-10-16T06:44:00;99405.09;;;9.02;74.02
65718;BME280;52445;52.466;-1.016;2022-10-16T06:46:27;99423.19;;;9.02;74.51
65718;BME280;52445;52.466;-1.016;2022-10-16T06:48:54;99420.59;;;9.02;74.14
65718;BME280;52445;52.466;-1.016;2022-10-16T06:51:22;99427.47;;;9.03;74.03
65718;BME280;52445;52.466;-1.016;2022-10-16T06:53:51;99430.94;;;9.02;74.12
65718;BME280;52445;52.466;-1.016;2022-10-16T06:56:30;99437.78;;;9.03;73.86
65718;BME280;52445;52.466;-1.016;2022-10-16T06:58:58;99436.91;;;9.04;74.20
65718;BME280;52445;52.466;-1.016;2022-10-16T07:01:25;99443.81;;;9.05;74.09
65718;BME280;52445;52.466;-1.016;2022-10-16T07:03:52;99449.81;;;9.07;74.52
65718;BME280;52445;52.466;-1.016;2022-10-16T07:06:22;99460.16;;;9.10;74.32
65718;BME280;52445;52.466;-1.016;2022-10-16T07:08:49;99459.28;;;9.11;74.12
65718;BME280;52445;52.466;-1.016;2022-10-16T07:11:18;99464.44;;;9.12;74.43
65718;BME280;52445;52.466;-1.016;2022-10-16T07:13:47;99473.88;;;9.15;74.17
65718;BME280;52445;52.466;-1.016;2022-10-16T07:16:22;99477.31;;;9.19;74.19
65718;BME280;52445;52.466;-1.016;2022-10-16T07:18:50;99482.47;;;9.22;74.00
65718;BME280;52445;52.466;-1.016;2022-10-16T07:21:21;99484.19;;;9.24;74.21
65718;BME280;52445;52.466;-1.016;2022-10-16T07:23:51;99491.06;;;9.25;74.21
65718;BME280;52445;52.466;-1.016;2022-10-16T07:26:18;99499.63;;;9.31;74.03
65718;BME280;52445;52.466;-1.016;2022-10-16T07:28:45;99505.66;;;9.34;74.14
65718;BME280;52445;52.466;-1.016;2022-10-16T07:31:14;99510.78;;;9.39;73.88
65718;BME280;52445;52.466;-1.016;2022-10-16T07:33:42;99506.44;;;9.44;74.43
65718;BME280;52445;52.466;-1.016;2022-10-16T07:36:12;99509.75;;;9.65;73.56
65718;BME280;52445;52.466;-1.016;2022-10-16T07:38:42;99512.78;;;10.14;73.93
65718;BME280;52445;52.466;-1.016;2022-10-16T07:41:11;99518.41;;;10.58;72.86
65718;BME280;52445;52.466;-1.016;2022-10-16T07:43:38;99518.88;;;10.90;73.41
65718;BME280;52445;52.466;-1.016;2022-10-16T07:46:05;99527.22;;;11.14;71.96
65718;BME280;52445;52.466;-1.016;2022-10-16T07:48:33;99525.31;;;11.25;73.05
65718;BME280;52445;52.466;-1.016;2022-10-16T07:51:02;99532.19;;;11.29;72.89
65718;BME280;52445;52.466;-1.016;2022-10-16T07:53:29;99539.09;;;11.30;71.34
65718;BME280;52445;52.466;-1.016;2022-10-16T07:55:58;99533.81;;;11.37;72.20
65718;BME280;52445;52.466;-1.016;2022-10-16T07:58:27;99532.00;;;11.43;71.96
65718;BME280;52445;52.466;-1.016;2022-10-16T08:00:55;99538.66;;;11.60;72.20
65718;BME280;52445;52.466;-1.016;2022-10-16T08:03:22;99555.72;;;11.75;72.06
65718;BME280;52445;52.466;-1.016;2022-10-16T08:05:48;99562.50;;;11.86;71.32
65718;BME280;52445;52.466;-1.016;2022-10-16T08:08:16;99571.06;;;11.91;72.61
65718;BME280;52445;52.466;-1.016;2022-10-16T08:10:43;99572.66;;;12.00;73.13
65718;BME280;52445;52.466;-1.016;2022-10-16T08:13:10;99586.31;;;12.13;72.78
65718;BME280;52445;52.466;-1.016;2022-10-16T08:15:37;99592.16;;;12.27;72.61
65718;BME280;52445;52.466;-1.016;2022-10-16T08:18:04;99602.97;;;12.51;73.23
65718;BME280;52445;52.466;-1.016;2022-10-16T08:20:32;99601.56;;;12.80;73.26
65718;BME280;52445;52.466;-1.016;2022-10-16T08:23:00;99600.00;;;13.16;72.59
65718;BME280;52445;52.466;-1.016;2022-10-16T08:25:27;99609.72;;;13.50;71.82
65718;BME280;52445;52.466;-1.016;2022-10-16T08:27:55;99610.19;;;13.69;71.61
65718;BME280;52445;52.466;-1.016;2022-10-16T08:30:23;99606.13;;;13.94;70.84
65718;BME280;52445;52.466;-1.016;2022-10-16T08:32:50;99610.78;;;14.52;70.34
65718;BME280;52445;52.466;-1.016;2022-10-16T08:35:17;99609.66;;;15.56;68.90
65718;BME280;52445;52.466;-1.016;2022-10-16T08:37:44;99616.38;;;16.73;66.36
65718;BME280;52445;52.466;-1.016;2022-10-16T08:40:18;99619.53;;;17.55;63.27
65718;BME280;52445;52.466;-1.016;2022-10-16T08:50:45;99636.66;;;20.26;58.93
65718;BME280;52445;52.466;-1.016;2022-10-16T08:53:19;99650.78;;;21.28;57.53
65718;BME280;52445;52.466;-1.016;2022-10-16T08:55:50;99644.44;;;22.28;55.86
65718;BME280;52445;52.466;-1.016;2022-10-16T08:58:19;99653.94;;;23.21;53.56
65718;BME280;52445;52.466;-1.016;2022-10-16T09:00:49;99649.16;;;23.97;51.79
65718;BME280;52445;52.466;-1.016;2022-10-16T09:16:34;99680.56;;;27.51;43.44
65718;BME280;52445;52.466;-1.016;2022-10-16T09:19:34;99680.00;;;28.03;42.67
65718;BME280;52445;52.466;-1.016;2022-10-16T09:22:12;99686.88;;;28.59;40.85
65718;BME280;52445;52.466;-1.016;2022-10-16T09:24:39;99683.66;;;28.87;40.74
65718;BME280;52445;52.466;-1.016;2022-10-16T09:27:11;99683.25;;;29.13;39.53
65718;BME280;52445;52.466;-1.016;2022-10-16T09:29:38;99691.50;;;29.41;39.09
65718;BME280;52445;52.466;-1.016;2022-10-16T09:32:16;99703.38;;;29.68;37.48
65718;BME280;52445;52.466;-1.016;2022-10-16T09:34:49;99700.88;;;29.76;37.81
65718;BME280;52445;52.466;-1.016;2022-10-16T09:37:19;99692.34;;;29.93;37.39
65718;BME280;52445;52.466;-1.016;2022-10-16T09:39:49;99695.16;;;30.01;36.68
65718;BME280;52445;52.466;-1.016;2022-10-16T09:42:19;99697.28;;;30.07;35.79
65718;BME280;52445;52.466;-1.016;2022-10-16T09:44:49;99703.78;;;30.14;35.47
65718;BME280;52445;52.466;-1.016;2022-10-16T09:47:20;99711.06;;;30.22;36.04
65718;BME280;52445;52.466;-1.016;2022-10-16T09:49:54;99697.69;;;30.42;35.67
65718;BME280;52445;52.466;-1.016;2022-10-16T09:52:23;99699.53;;;30.51;35.05
65718;BME280;52445;52.466;-1.016;2022-10-16T09:54:53;99700.94;;;30.56;34.75
65718;BME280;52445;52.466;-1.016;2022-10-16T09:57:21;99693.56;;;30.68;34.72
65718;BME280;52445;52.466;-1.016;2022-10-16T09:59:51;99695.28;;;30.78;34.45
65718;BME280;52445;52.466;-1.016;2022-10-16T10:02:36;99698.03;;;30.97;33.69
65718;BME280;52445;52.466;-1.016;2022-10-16T10:05:06;99694.63;;;31.04;33.25
65718;BME280;52445;52.466;-1.016;2022-10-16T10:07:44;99690.97;;;31.06;32.48
65718;BME280;52445;52.466;-1.016;2022-10-16T10:10:21;99699.88;;;31.34;33.45
65718;BME280;52445;52.466;-1.016;2022-10-16T10:12:48;99696.03;;;30.99;33.08
65718;BME280;52445;52.466;-1.016;2022-10-16T10:15:16;99694.13;;;30.91;31.76
65718;BME280;52445;52.466;-1.016;2022-10-16T10:20:36;99694.72;;;30.75;32.39
65718;BME280;52445;52.466;-1.016;2022-10-16T10:23:23;99689.06;;;30.88;32.43
65718;BME280;52445;52.466;-1.016;2022-10-16T10:25:59;99688.94;;;30.80;31.53
65718;BME280;52445;52.466;-1.016;2022-10-16T10:31:17;99696.56;;;30.74;31.09
65718;BME280;52445;52.466;-1.016;2022-10-16T10:34:03;99695.59;;;30.46;29.86
65718;BME280;52445;52.466;-1.016;2022-10-16T10:36:39;99693.19;;;29.93;30.32
65718;BME280;52445;52.466;-1.016;2022-10-16T11:06:59;99710.00;;;23.55;35.82
65718;BME280;52445;52.466;-1.016;2022-10-16T11:12:31;99717.81;;;22.68;36.66
65718;BME280;52445;52.466;-1.016;2022-10-16T11:15:12;99720.50;;;22.36;37.89
65718;BME280;52445;52.466;-1.016;2022-10-16T11:17:46;99719.63;;;22.04;37.20
65718;BME280;52445;52.466;-1.016;2022-10-16T11:22:57;99699.81;;;21.81;36.54
65718;BME280;52445;52.466;-1.016;2022-10-16T11:25:29;99701.75;;;21.27;38.46
65718;BME280;52445;52.466;-1.016;2022-10-16T11:28:03;99702.34;;;20.99;38.52
65718;BME280;52445;52.466;-1.016;2022-10-16T11:30:55;99707.94;;;20.75;38.63
65718;BME280;52445;52.466;-1.016;2022-10-16T11:33:30;99703.66;;;20.54;38.88
65718;BME280;52445;52.466;-1.016;2022-10-16T11:44:09;99711.50;;;20.01;39.66
65718;BME280;52445;52.466;-1.016;2022-10-16T11:46:40;99717.28;;;19.89;39.36
65718;BME280;52445;52.466;-1.016;2022-10-16T11:49:27;99709.91;;;19.78;39.76
65718;BME280;52445;52.466;-1.016;2022-10-16T11:55:04;99701.38;;;19.53;39.56
65718;BME280;52445;52.466;-1.016;2022-10-16T11:57:39;99705.06;;;19.49;40.08
65718;BME280;52445;52.466;-1.016;2022-10-16T12:00:17;99703.00;;;19.37;40.23
65718;BME280;52445;52.466;-1.016;2022-10-16T12:03:01;99700.00;;;19.25;40.26
65718;BME280;52445;52.466;-1.016;2022-10-16T12:08:11;99712.19;;;19.06;38.90
65718;BME280;52445;52.466;-1.016;2022-10-16T12:10:40;99710.88;;;18.95;39.66
65718;BME280;52445;52.466;-1.016;2022-10-16T12:18:49;99701.50;;;18.69;40.86
65718;BME280;52445;52.466;-1.016;2022-10-16T12:21:30;99706.69;;;18.70;40.85
65718;BME280;52445;52.466;-1.016;2022-10-16T12:23:58;99706.81;;;18.67;40.69
65718;BME280;52445;52.466;-1.016;2022-10-16T12:26:30;99703.44;;;18.65;41.32
65718;BME280;52445;52.466;-1.016;2022-10-16T12:31:57;99714.34;;;18.54;41.02
65718;BME280;52445;52.466;-1.016;2022-10-16T12:37:11;99715.72;;;18.42;41.54
65718;BME280;52445;52.466;-1.016;2022-10-16T12:39:38;99714.91;;;18.40;41.44
65718;BME280;52445;52.466;-1.016;2022-10-16T12:42:19;99711.53;;;18.38;40.91
65718;BME280;52445;52.466;-1.016;2022-10-16T12:44:46;99711.63;;;18.35;41.30
65718;BME280;52445;52.466;-1.016;2022-10-16T12:52:59;99707.69;;;18.68;40.93
65718;BME280;52445;52.466;-1.016;2022-10-16T12:55:26;99709.16;;;18.53;41.87
65718;BME280;52445;52.466;-1.016;2022-10-16T13:01:10;99712.94;;;18.68;42.31
65718;BME280;52445;52.466;-1.016;2022-10-16T13:06:45;99708.28;;;18.74;42.17
65718;BME280;52445;52.466;-1.016;2022-10-16T13:20:31;99717.44;;;18.64;43.14
65718;BME280;52445;52.466;-1.016;2022-10-16T13:28:10;99724.56;;;18.17;43.74
65718;BME280;52445;52.466;-1.016;2022-10-16T13:30:41;99722.44;;;18.03;44.01
65718;BME280;52445;52.466;-1.016;2022-10-16T13:35:50;99713.59;;;17.83;44.81
65718;BME280;52445;52.466;-1.016;2022-10-16T13:38:20;99717.91;;;17.84;44.74
65718;BME280;52445;52.466;-1.016;2022-10-16T13:48:40;99702.28;;;17.59;45.29
65718;BME280;52445;52.466;-1.016;2022-10-16T13:53:45;99712.94;;;17.78;45.92
65718;BME280;52445;52.466;-1.016;2022-10-16T13:56:15;99702.75;;;17.46;45.78
65718;BME280;52445;52.466;-1.016;2022-10-16T13:58:42;99708.44;;;17.34;46.43
65718;BME280;52445;52.466;-1.016;2022-10-16T14:01:28;99706.53;;;17.14;46.54
65718;BME280;52445;52.466;-1.016;2022-10-16T14:04:02;99697.75;;;17.15;47.61
65718;BME280;52445;52.466;-1.016;2022-10-16T14:06:30;99700.47;;;17.13;47.21
65718;BME280;52445;52.466;-1.016;2022-10-16T14:09:05;99701.44;;;17.09;47.73
65718;BME280;52445;52.466;-1.016;2022-10-16T14:11:33;99705.97;;;17.04;47.19
65718;BME280;52445;52.466;-1.016;2022-10-16T14:14:03;99695.75;;;16.98;48.11
65718;BME280;52445;52.466;-1.016;2022-10-16T14:16:30;99703.91;;;16.88;47.96
65718;BME280;52445;52.466;-1.016;2022-10-16T14:21:40;99689.69;;;16.70;47.83
65718;BME280;52445;52.466;-1.016;2022-10-16T14:24:12;99687.13;;;16.68;48.20
65718;BME280;52445;52.466;-1.016;2022-10-16T14:26:42;99698.59;;;16.64;48.88
65718;BME280;52445;52.466;-1.016;2022-10-16T14:29:19;99689.19;;;16.58;48.91
65718;BME280;52445;52.466;-1.016;2022-10-16T14:31:56;99694.78;;;16.48;49.79
65718;BME280;52445;52.466;-1.016;2022-10-16T14:34:26;99691.22;;;16.50;49.81
65718;BME280;52445;52.466;-1.016;2022-10-16T14:36:54;99689.56;;;16.48;49.67
65718;BME280;52445;52.466;-1.016;2022-10-16T14:39:22;99688.56;;;16.52;49.91
65718;BME280;52445;52.466;-1.016;2022-10-16T14:41:51;99686.69;;;16.55;49.41
65718;BME280;52445;52.466;-1.016;2022-10-16T14:44:21;99684.84;;;16.59;49.57
65718;BME280;52445;52.466;-1.016;2022-10-16T14:46:52;99680.34;;;16.63;50.16
65718;BME280;52445;52.466;-1.016;2022-10-16T14:49:20;99689.84;;;16.65;50.11
65718;BME280;52445;52.466;-1.016;2022-10-16T14:51:48;99675.75;;;16.69;50.63
65718;BME280;52445;52.466;-1.016;2022-10-16T14:54:16;99666.94;;;16.72;50.21
65718;BME280;52445;52.466;-1.016;2022-10-16T14:56:58;99666.22;;;16.68;50.11
65718;BME280;52445;52.466;-1.016;2022-10-16T15:02:20;99659.97;;;16.73;50.20
65718;BME280;52445;52.466;-1.016;2022-10-16T15:04:49;99657.44;;;16.69;50.48
65718;BME280;52445;52.466;-1.016;2022-10-16T15:07:15;99659.97;;;16.73;50.52
65718;BME280;52445;52.466;-1.016;2022-10-16T15:09:42;99657.41;;;16.71;50.03
65718;BME280;52445;52.466;-1.016;2022-10-16T15:12:15;99661.91;;;16.67;50.58
65718;BME280;52445;52.466;-1.016;2022-10-16T15:14:42;99657.59;;;16.66;50.41
65718;BME280;52445;52.466;-1.016;2022-10-16T15:17:10;99654.25;;;16.61;50.63
65718;BME280;52445;52.466;-1.016;2022-10-16T15:19:37;99660.50;;;16.57;51.05
65718;BME280;52445;52.466;-1.016;2022-10-16T15:22:04;99655.78;;;16.41;51.05
65718;BME280;52445;52.466;-1.016;2022-10-16T15:24:31;99657.66;;;16.38;51.00
65718;BME280;52445;52.466;-1.016;2022-10-16T15:26:58;99661.19;;;16.35;51.34
65718;BME280;52445;52.466;-1.016;2022-10-16T15:29:24;99652.66;;;16.30;51.83
65718;BME280;52445;52.466;-1.016;2022-10-16T15:31:51;99650.97;;;16.29;51.60
65718;BME280;52445;52.466;-1.016;2022-10-16T15:34:17;99645.84;;;16.26;50.88
65718;BME280;52445;52.466;-1.016;2022-10-16T15:36:46;99649.47;;;16.22;51.54